createdAt,value
2019-02-27T07:12:55.315Z,17.32
2019-02-27T07:13:54.389Z,17.33
2019-02-27T07:14:54.375Z,17.38
2019-02-27T07:15:55.676Z,17.38
2019-02-27T07:16:57.181Z,17.39
2019-02-27T07:17:54.308Z,17.43
2019-02-27T07:18:54.276Z,17.36
2019-02-27T07:19:54.242Z,17.32
2019-02-27T07:20:55.597Z,17.45
2019-02-27T07:21:54.482Z,17.46
2019-02-27T07:22:54.151Z,17.47
2019-02-27T07:23:57.741Z,17.47
2019-02-27T07:24:54.150Z,17.47
2019-02-27T07:25:57.757Z,17.54
2019-02-27T07:26:57.778Z,17.14
2019-02-27T07:27:57.736Z,15.89
2019-02-27T07:28:57.726Z,14.69
2019-02-27T07:29:57.714Z,13.48
2019-02-27T07:30:57.716Z,12.40
2019-02-27T07:31:57.695Z,11.16
2019-02-27T07:32:57.705Z,10.25
2019-02-27T07:33:57.672Z,9.67
2019-02-27T07:34:57.661Z,8.88
2019-02-27T07:35:57.648Z,8.40
2019-02-27T07:36:57.638Z,7.84
2019-02-27T07:37:57.651Z,7.27
2019-02-27T07:38:58.300Z,6.97
2019-02-27T07:39:57.608Z,6.87
2019-02-27T07:40:57.594Z,6.61
2019-02-27T07:41:57.584Z,6.45
2019-02-27T07:42:57.597Z,6.42
2019-02-27T07:43:57.564Z,6.35
2019-02-27T07:44:57.553Z,6.13
2019-02-27T07:45:57.542Z,6.10
2019-02-27T07:46:58.081Z,5.81
2019-02-27T07:47:57.543Z,5.93
2019-02-27T07:48:57.512Z,5.78
2019-02-27T07:49:57.505Z,5.67
2019-02-27T07:50:57.493Z,5.74
2019-02-27T07:51:58.072Z,5.75
2019-02-27T07:52:57.521Z,5.65
2019-02-27T07:53:57.458Z,5.69
2019-02-27T07:54:57.449Z,5.67
2019-02-27T07:55:57.437Z,5.80
2019-02-27T07:56:57.425Z,5.80
2019-02-27T07:57:58.696Z,5.80
2019-02-27T07:58:57.407Z,5.81
2019-02-27T07:59:57.392Z,5.88
2019-02-27T08:00:57.385Z,5.83
2019-02-27T08:01:57.371Z,5.88
2019-02-27T08:02:57.384Z,5.90
2019-02-27T08:03:57.349Z,5.83
2019-02-27T08:04:57.342Z,5.92
2019-02-27T08:05:59.853Z,5.83
2019-02-27T08:06:58.320Z,5.90
2019-02-27T08:07:57.330Z,5.95
2019-02-27T08:08:57.853Z,5.90
2019-02-27T08:09:57.284Z,5.95
2019-02-27T08:10:57.273Z,6.01
2019-02-27T08:11:57.262Z,6.03
2019-02-27T08:12:57.286Z,6.06
2019-02-27T08:13:57.245Z,6.11
2019-02-27T08:14:57.236Z,6.20
2019-02-27T08:15:57.423Z,6.13
2019-02-27T08:16:58.078Z,6.27
2019-02-27T08:17:58.581Z,6.24
2019-02-27T08:18:57.212Z,6.27
2019-02-27T08:19:57.177Z,6.27
2019-02-27T08:20:57.172Z,6.35
2019-02-27T08:21:57.158Z,6.36
2019-02-27T08:22:57.911Z,6.28
2019-02-27T08:23:57.162Z,6.33
2019-02-27T08:24:57.127Z,6.53
2019-02-27T08:25:57.116Z,6.51
2019-02-27T08:26:57.103Z,6.57
2019-02-27T08:27:57.094Z,6.58
2019-02-27T08:28:57.111Z,6.64
2019-02-27T08:29:57.079Z,6.75
2019-02-27T08:30:57.061Z,6.73
2019-02-27T08:32:00.793Z,6.76
2019-02-27T08:32:57.037Z,6.76
2019-02-27T08:33:57.056Z,6.90
2019-02-27T08:34:57.018Z,6.87
2019-02-27T08:35:57.009Z,6.97
2019-02-27T08:36:56.995Z,6.91
2019-02-27T08:38:02.646Z,7.01
2019-02-27T08:38:57.996Z,7.09
2019-02-27T08:39:56.964Z,7.15
2019-02-27T08:40:58.338Z,7.27
2019-02-27T08:41:56.948Z,7.27
2019-02-27T08:42:56.929Z,7.27
2019-02-27T08:43:56.943Z,7.32
2019-02-27T08:44:56.909Z,7.50
2019-02-27T08:45:56.904Z,7.54
2019-02-27T08:46:56.887Z,7.69
2019-02-27T08:47:56.880Z,7.62
2019-02-27T08:48:56.896Z,7.74
2019-02-27T08:49:58.020Z,7.73
2019-02-27T08:50:56.845Z,7.79
2019-02-27T08:51:56.837Z,7.94
2019-02-27T08:52:57.931Z,7.99
2019-02-27T08:53:59.259Z,7.91
2019-02-27T08:54:56.802Z,8.03
2019-02-27T08:55:56.796Z,8.13
2019-02-27T08:56:56.781Z,8.24
2019-02-27T08:57:57.139Z,8.29
2019-02-27T08:58:56.787Z,8.42
2019-02-27T08:59:56.751Z,8.55
2019-02-27T09:00:56.740Z,8.58
2019-02-27T09:01:56.732Z,8.63
2019-02-27T09:02:56.721Z,8.75
2019-02-27T09:03:56.729Z,8.67
2019-02-27T09:04:56.728Z,8.80
2019-02-27T09:05:56.693Z,8.83
2019-02-27T09:07:02.108Z,8.93
2019-02-27T09:07:57.668Z,9.06
2019-02-27T09:08:56.686Z,9.23
2019-02-27T09:09:56.649Z,9.35
2019-02-27T09:10:56.637Z,9.44
2019-02-27T09:11:56.625Z,9.52
2019-02-27T09:13:05.061Z,9.59
2019-02-27T09:13:57.642Z,9.53
2019-02-27T09:14:56.592Z,9.71
2019-02-27T09:15:56.581Z,9.74
2019-02-27T09:16:56.569Z,9.85
2019-02-27T09:17:59.180Z,9.96
2019-02-27T09:18:57.545Z,10.04
2019-02-27T09:19:56.560Z,10.17
2019-02-27T09:20:56.526Z,10.22
2019-02-27T09:21:56.514Z,10.36
2019-02-27T09:22:56.510Z,10.42
2019-02-27T09:23:56.496Z,10.44
2019-02-27T09:24:57.208Z,10.58
2019-02-27T09:25:57.457Z,10.75
2019-02-27T09:26:56.462Z,10.78
2019-02-27T09:27:56.459Z,10.78
2019-02-27T09:28:56.442Z,11.05
2019-02-27T09:29:56.455Z,11.17
2019-02-27T09:30:56.421Z,11.16
2019-02-27T09:31:56.409Z,11.42
2019-02-27T09:32:56.402Z,11.63
2019-02-27T09:33:56.387Z,11.81
2019-02-27T09:34:57.039Z,12.05
2019-02-27T09:35:56.366Z,12.19
2019-02-27T09:36:56.359Z,12.29
2019-02-27T09:37:56.344Z,12.48
2019-02-27T09:38:57.620Z,12.54
2019-02-27T09:39:56.352Z,12.77
2019-02-27T09:40:56.315Z,13.16
2019-02-27T09:41:56.301Z,13.41
2019-02-27T09:42:56.291Z,13.66
2019-02-27T09:43:58.670Z,13.96
2019-02-27T09:44:56.291Z,14.04
2019-02-27T09:45:56.258Z,14.20
2019-02-27T09:46:56.251Z,14.34
2019-02-27T09:47:59.613Z,14.44
2019-02-27T09:48:56.226Z,14.49
2019-02-27T09:49:56.241Z,14.60
2019-02-27T09:50:57.013Z,14.54
2019-02-27T09:51:56.929Z,14.56
2019-02-27T09:52:56.188Z,14.56
2019-02-27T09:53:56.179Z,14.54
2019-02-27T09:54:56.185Z,14.69
2019-02-27T09:55:56.154Z,14.69
2019-02-27T09:56:56.139Z,14.78
2019-02-27T09:57:56.133Z,14.74
2019-02-27T09:58:56.120Z,14.86
2019-02-27T09:59:56.131Z,14.98
2019-02-27T10:00:59.170Z,14.90
2019-02-27T10:01:57.304Z,15.03
2019-02-27T10:02:58.076Z,15.01
2019-02-27T10:03:56.065Z,14.94
2019-02-27T10:04:56.076Z,15.04
2019-02-27T10:05:56.065Z,14.93
2019-02-27T10:06:56.032Z,15.05
2019-02-27T10:07:57.433Z,15.01
2019-02-27T10:08:56.399Z,15.05
2019-02-27T10:09:56.004Z,15.12
2019-02-27T10:10:56.013Z,15.22
2019-02-27T10:11:55.978Z,15.20
2019-02-27T10:12:55.969Z,15.30
2019-02-27T10:13:55.958Z,15.34
2019-02-27T10:14:55.947Z,15.25
2019-02-27T10:16:00.463Z,15.35
2019-02-27T10:16:56.923Z,15.55
2019-02-27T10:17:55.917Z,15.55
2019-02-27T10:18:55.942Z,15.60
2019-02-27T10:19:55.895Z,15.52
2019-02-27T10:20:55.907Z,15.64
2019-02-27T10:21:55.872Z,15.67
2019-02-27T10:22:55.861Z,15.67
2019-02-27T10:23:55.849Z,15.68
2019-02-27T10:24:55.838Z,15.67
2019-02-27T10:25:55.850Z,15.68
2019-02-27T10:26:55.817Z,15.81
2019-02-27T10:27:55.809Z,15.80
2019-02-27T10:28:55.795Z,15.91
2019-02-27T10:29:55.785Z,15.80
2019-02-27T10:30:55.795Z,15.85
2019-02-27T10:31:58.196Z,15.70
2019-02-27T10:32:55.755Z,15.70
2019-02-27T10:33:55.741Z,15.71
2019-02-27T10:34:55.734Z,15.85
2019-02-27T10:35:55.743Z,15.80
2019-02-27T10:36:55.731Z,15.88
2019-02-27T10:37:55.706Z,15.89
2019-02-27T10:38:55.691Z,15.88
2019-02-27T10:39:55.680Z,15.88
2019-02-27T10:40:55.692Z,15.86
2019-02-27T10:41:55.655Z,15.92
2019-02-27T10:42:55.645Z,15.95
2019-02-27T10:43:56.482Z,15.92
2019-02-27T10:44:55.625Z,15.88
2019-02-27T10:45:55.636Z,15.92
2019-02-27T10:46:59.491Z,15.89
2019-02-27T10:47:55.593Z,15.81
2019-02-27T10:48:55.587Z,15.91
2019-02-27T10:49:55.570Z,15.84
2019-02-27T10:50:55.592Z,15.81
2019-02-27T10:51:55.549Z,15.80
2019-02-27T10:52:55.557Z,15.91
2019-02-27T10:53:55.527Z,15.93
2019-02-27T10:54:55.518Z,15.84
2019-02-27T10:55:56.121Z,15.78
2019-02-27T10:56:56.314Z,15.92
2019-02-27T10:57:55.489Z,15.86
2019-02-27T10:58:55.474Z,15.76
2019-02-27T10:59:55.463Z,15.77
2019-02-27T11:00:58.155Z,15.80
2019-02-27T11:01:56.467Z,15.85
2019-02-27T11:02:55.434Z,15.91
2019-02-27T11:03:55.422Z,15.88
2019-02-27T11:04:55.423Z,16.03
2019-02-27T11:05:55.662Z,15.92
2019-02-27T11:06:55.414Z,16.01
2019-02-27T11:07:55.431Z,16.03
2019-02-27T11:08:55.366Z,16.03
2019-02-27T11:09:55.361Z,16.01
2019-02-27T11:10:55.346Z,16.10
2019-02-27T11:11:55.364Z,16.10
2019-02-27T11:12:55.325Z,16.08
2019-02-27T11:13:55.469Z,16.08
2019-02-27T11:14:55.305Z,16.17
2019-02-27T11:15:55.294Z,16.10
2019-02-27T11:16:55.313Z,16.11
2019-02-27T11:17:55.273Z,16.16
2019-02-27T11:18:55.259Z,16.11
2019-02-27T11:19:55.247Z,16.10
2019-02-27T11:20:58.225Z,15.91
2019-02-27T11:21:58.320Z,15.91
2019-02-27T11:22:55.216Z,15.91
2019-02-27T11:23:55.205Z,15.91
2019-02-27T11:24:55.198Z,15.96
2019-02-27T11:25:57.004Z,16.03
2019-02-27T11:26:56.931Z,15.91
2019-02-27T11:27:55.173Z,15.89
2019-02-27T11:28:55.155Z,16.04
2019-02-27T11:29:59.588Z,16.18
2019-02-27T11:30:56.131Z,16.16
2019-02-27T11:31:55.141Z,16.18
2019-02-27T11:32:57.809Z,16.30
2019-02-27T11:33:55.101Z,16.34
2019-02-27T11:34:55.087Z,16.44
2019-02-27T11:35:55.077Z,16.70
2019-02-27T11:36:55.090Z,17.35
2019-02-27T11:37:55.127Z,18.39
2019-02-27T11:38:56.629Z,19.57
2019-02-27T11:39:55.037Z,20.64
2019-02-27T11:40:55.025Z,21.49
2019-02-27T11:41:55.041Z,22.26
2019-02-27T11:42:55.006Z,22.74
2019-02-27T11:43:54.990Z,23.16
2019-02-27T11:44:54.987Z,22.82
2019-02-27T11:45:57.703Z,22.85
2019-02-27T11:46:58.946Z,23.39
2019-02-27T11:47:54.980Z,23.60
2019-02-27T11:48:57.026Z,24.12
2019-02-27T11:49:54.928Z,24.82
2019-02-27T11:50:54.922Z,24.84
2019-02-27T11:51:56.929Z,24.70
2019-02-27T11:52:54.920Z,24.99
2019-02-27T11:53:54.883Z,25.57
2019-02-27T11:54:54.876Z,25.64
2019-02-27T11:55:54.862Z,25.02
2019-02-27T11:56:56.914Z,24.90
2019-02-27T11:57:54.870Z,24.79
2019-02-27T11:58:54.841Z,25.19
2019-02-27T11:59:54.820Z,25.24
2019-02-27T12:00:54.812Z,25.45
2019-02-27T12:01:56.121Z,25.85
2019-02-27T12:02:54.812Z,26.03
2019-02-27T12:03:54.782Z,26.35
2019-02-27T12:04:56.663Z,26.57
2019-02-27T12:05:54.761Z,26.91
2019-02-27T12:06:54.748Z,27.20
2019-02-27T12:07:54.773Z,27.12
2019-02-27T12:08:59.457Z,27.27
2019-02-27T12:09:55.721Z,27.35
2019-02-27T12:10:54.708Z,27.52
2019-02-27T12:11:54.700Z,27.76
2019-02-27T12:12:59.710Z,27.93
2019-02-27T12:13:55.674Z,27.99
2019-02-27T12:14:54.667Z,28.23
2019-02-27T12:15:54.656Z,28.50
2019-02-27T12:16:54.650Z,28.70
2019-02-27T12:17:59.951Z,28.83
2019-02-27T12:18:55.628Z,28.33
2019-02-27T12:19:54.616Z,27.74
2019-02-27T12:20:54.610Z,27.46
2019-02-27T12:21:54.596Z,27.11
2019-02-27T12:22:54.623Z,27.09
2019-02-27T12:23:54.586Z,27.81
2019-02-27T12:24:54.565Z,27.38
2019-02-27T12:25:54.562Z,27.24
2019-02-27T12:26:54.551Z,27.52
2019-02-27T12:27:54.539Z,27.33
2019-02-27T12:28:54.548Z,27.76
2019-02-27T12:29:54.516Z,27.53
2019-02-27T12:30:54.505Z,27.99
2019-02-27T12:31:54.496Z,28.51
2019-02-27T12:32:56.664Z,28.82
2019-02-27T12:33:54.498Z,28.95
2019-02-27T12:34:54.465Z,29.29
2019-02-27T12:35:54.459Z,29.48
2019-02-27T12:36:54.448Z,29.60
2019-02-27T12:37:54.435Z,29.82
2019-02-27T12:38:54.446Z,29.67
2019-02-27T12:39:54.414Z,29.97
2019-02-27T12:40:58.246Z,30.19
2019-02-27T12:41:54.396Z,30.36
2019-02-27T12:42:54.389Z,30.51
2019-02-27T12:43:54.398Z,30.61
2019-02-27T12:44:54.687Z,30.76
2019-02-27T12:45:54.357Z,31.00
2019-02-27T12:46:54.344Z,31.09
2019-02-27T12:47:54.337Z,31.15
2019-02-27T12:48:54.346Z,31.12
2019-02-27T12:49:54.916Z,30.82
2019-02-27T12:50:54.314Z,30.53
2019-02-27T12:51:54.299Z,30.37
2019-02-27T12:52:54.289Z,30.49
2019-02-27T12:53:55.169Z,30.44
2019-02-27T12:54:54.271Z,30.46
2019-02-27T12:55:54.260Z,30.48
2019-02-27T12:56:54.248Z,30.23
2019-02-27T12:57:54.236Z,30.25
2019-02-27T12:58:58.189Z,30.19
2019-02-27T12:59:54.232Z,30.16
2019-02-27T13:00:54.208Z,29.64
2019-02-27T13:01:54.199Z,30.18
2019-02-27T13:02:54.187Z,29.97
2019-02-27T13:03:54.200Z,29.67
2019-02-27T13:04:54.167Z,29.88
2019-02-27T13:05:54.162Z,30.16
2019-02-27T13:06:54.146Z,29.57
2019-02-27T13:07:54.136Z,29.05
2019-02-27T13:08:55.844Z,29.15
2019-02-27T13:09:58.430Z,29.23
2019-02-27T13:10:55.108Z,29.21
2019-02-27T13:11:54.098Z,29.85
2019-02-27T13:12:54.090Z,29.62
2019-02-27T13:13:54.077Z,29.20
2019-02-27T13:14:54.089Z,29.35
2019-02-27T13:15:54.060Z,30.07
2019-02-27T13:16:54.050Z,30.01
2019-02-27T13:17:57.415Z,29.52
2019-02-27T13:18:54.027Z,29.86
2019-02-27T13:19:54.045Z,29.73
2019-02-27T13:20:54.007Z,29.60
2019-02-27T13:21:55.049Z,29.51
2019-02-27T13:22:53.990Z,30.16
2019-02-27T13:23:55.739Z,30.38
2019-02-27T13:24:53.989Z,29.41
2019-02-27T13:25:53.959Z,29.58
2019-02-27T13:26:53.950Z,30.00
2019-02-27T13:27:53.939Z,30.49
2019-02-27T13:28:53.928Z,30.06
2019-02-27T13:29:55.477Z,29.67
2019-02-27T13:30:54.907Z,29.84
2019-02-27T13:31:53.895Z,29.94
2019-02-27T13:32:53.886Z,29.64
2019-02-27T13:33:53.877Z,29.58
2019-02-27T13:34:53.890Z,29.55
2019-02-27T13:35:56.565Z,29.89
2019-02-27T13:36:53.847Z,29.60
2019-02-27T13:37:53.835Z,29.55
2019-02-27T13:38:53.826Z,29.17
2019-02-27T13:39:53.836Z,28.23
2019-02-27T13:40:53.804Z,27.30
2019-02-27T13:41:53.799Z,27.03
2019-02-27T13:42:53.874Z,26.93
2019-02-27T13:43:53.774Z,27.77
2019-02-27T13:44:53.785Z,28.02
2019-02-27T13:45:53.756Z,28.25
2019-02-27T13:46:56.641Z,28.85
2019-02-27T13:47:53.739Z,28.82
2019-02-27T13:48:53.722Z,29.05
2019-02-27T13:49:53.736Z,28.94
2019-02-27T13:50:53.703Z,29.36
2019-02-27T13:51:53.693Z,29.08
2019-02-27T13:52:53.691Z,28.87
2019-02-27T13:53:53.672Z,29.25
2019-02-27T13:54:53.693Z,29.67
2019-02-27T13:55:53.684Z,29.73
2019-02-27T13:56:53.643Z,29.62
2019-02-27T13:57:58.794Z,30.13
2019-02-27T13:58:54.636Z,29.86
2019-02-27T13:59:53.647Z,29.05
2019-02-27T14:00:54.495Z,29.08
2019-02-27T14:01:53.593Z,28.43
2019-02-27T14:02:53.577Z,28.24
2019-02-27T14:03:53.568Z,28.40
2019-02-27T14:04:53.737Z,28.28
2019-02-27T14:05:53.572Z,28.03
2019-02-27T14:06:53.535Z,28.08
2019-02-27T14:07:57.264Z,28.73
2019-02-27T14:08:53.532Z,29.45
2019-02-27T14:09:53.505Z,29.45
2019-02-27T14:10:54.031Z,29.79
2019-02-27T14:11:53.482Z,29.71
2019-02-27T14:12:53.473Z,29.94
2019-02-27T14:13:53.462Z,30.21
2019-02-27T14:14:55.811Z,30.23
2019-02-27T14:15:53.488Z,29.97
2019-02-27T14:16:53.432Z,29.23
2019-02-27T14:17:53.424Z,29.49
2019-02-27T14:18:54.148Z,29.70
2019-02-27T14:19:55.288Z,29.05
2019-02-27T14:20:53.413Z,29.08
2019-02-27T14:21:53.382Z,29.73
2019-02-27T14:22:53.368Z,29.97
2019-02-27T14:23:53.357Z,29.62
2019-02-27T14:24:54.856Z,28.77
2019-02-27T14:25:53.361Z,28.38
2019-02-27T14:26:53.328Z,28.46
2019-02-27T14:27:53.316Z,28.38
2019-02-27T14:28:55.144Z,28.50
2019-02-27T14:29:53.295Z,28.46
2019-02-27T14:30:53.316Z,28.27
2019-02-27T14:31:53.277Z,28.69
2019-02-27T14:32:53.263Z,29.08
2019-02-27T14:33:54.234Z,29.67
2019-02-27T14:34:53.246Z,30.00
2019-02-27T14:35:53.256Z,29.94
2019-02-27T14:36:53.225Z,29.20
2019-02-27T14:37:53.214Z,29.03
2019-02-27T14:38:53.423Z,29.10
2019-02-27T14:39:53.192Z,29.20
2019-02-27T14:40:53.207Z,28.88
2019-02-27T14:41:53.172Z,28.83
2019-02-27T14:42:54.868Z,28.48
2019-02-27T14:43:53.150Z,29.00
2019-02-27T14:44:53.141Z,29.00
2019-02-27T14:45:53.278Z,29.10
2019-02-27T14:46:53.119Z,28.98
2019-02-27T14:47:53.108Z,29.07
2019-02-27T14:48:53.102Z,29.39
2019-02-27T14:49:53.089Z,29.37
2019-02-27T14:50:53.078Z,29.15
2019-02-27T14:51:53.090Z,29.33
2019-02-27T14:52:53.057Z,28.89
2019-02-27T14:53:55.713Z,28.46
2019-02-27T14:54:53.048Z,29.02
2019-02-27T14:55:53.026Z,28.85
2019-02-27T14:56:53.040Z,29.30
2019-02-27T14:57:53.004Z,29.70
2019-02-27T14:58:53.011Z,30.06
2019-02-27T14:59:52.982Z,30.29
2019-02-27T15:00:52.974Z,30.38
2019-02-27T15:01:52.989Z,30.70
2019-02-27T15:02:55.682Z,29.57
2019-02-27T15:03:52.977Z,29.12
2019-02-27T15:04:52.932Z,28.82
2019-02-27T15:05:52.922Z,29.26
2019-02-27T15:06:52.954Z,29.71
2019-02-27T15:07:54.636Z,29.60
2019-02-27T15:08:58.028Z,29.51
2019-02-27T15:09:53.887Z,29.58
2019-02-27T15:10:52.871Z,29.92
2019-02-27T15:11:52.880Z,30.28
2019-02-27T15:12:55.176Z,29.99
2019-02-27T15:13:52.840Z,29.82
2019-02-27T15:14:52.830Z,29.85
2019-02-27T15:15:52.820Z,30.26
2019-02-27T15:16:52.829Z,29.99
2019-02-27T15:17:52.800Z,29.85
2019-02-27T15:18:55.155Z,29.51
2019-02-27T15:19:52.776Z,29.44
2019-02-27T15:20:52.766Z,29.32
2019-02-27T15:21:52.779Z,29.74
2019-02-27T15:22:53.654Z,29.60
2019-02-27T15:23:52.737Z,29.32
2019-02-27T15:24:52.729Z,29.11
2019-02-27T15:25:52.718Z,29.52
2019-02-27T15:26:52.732Z,29.71
2019-02-27T15:27:52.693Z,29.74
2019-02-27T15:28:52.703Z,29.70
2019-02-27T15:29:52.675Z,29.62
2019-02-27T15:30:52.664Z,29.14
2019-02-27T15:31:54.775Z,28.57
2019-02-27T15:32:52.643Z,28.28
2019-02-27T15:33:54.033Z,27.93
2019-02-27T15:34:52.623Z,27.80
2019-02-27T15:35:55.037Z,27.46
2019-02-27T15:36:52.624Z,27.06
2019-02-27T15:37:52.590Z,26.65
2019-02-27T15:38:52.579Z,25.91
2019-02-27T15:39:55.028Z,25.41
2019-02-27T15:40:52.566Z,24.66
2019-02-27T15:41:52.662Z,23.78
2019-02-27T15:42:52.537Z,23.49
2019-02-27T15:43:59.650Z,22.99
2019-02-27T15:44:53.518Z,22.76
2019-02-27T15:45:52.510Z,22.36
2019-02-27T15:46:53.513Z,22.02
2019-02-27T15:47:52.515Z,21.75
2019-02-27T15:48:52.886Z,21.63
2019-02-27T15:49:52.490Z,21.45
2019-02-27T15:50:56.327Z,21.34
2019-02-27T15:51:52.447Z,21.28
2019-02-27T15:52:52.461Z,21.11
2019-02-27T15:53:52.441Z,20.98
2019-02-27T15:54:52.416Z,20.90
2019-02-27T15:55:52.402Z,20.78
2019-02-27T15:56:52.391Z,20.78
2019-02-27T15:57:53.748Z,20.66
2019-02-27T15:58:52.368Z,20.56
2019-02-27T15:59:52.379Z,20.48
2019-02-27T16:00:53.333Z,20.44
2019-02-27T16:01:52.339Z,20.30
2019-02-27T16:02:52.350Z,20.22
2019-02-27T16:03:52.321Z,20.13
2019-02-27T16:04:55.505Z,19.92
2019-02-27T16:05:52.294Z,19.92
2019-02-27T16:06:52.282Z,19.90
2019-02-27T16:07:52.312Z,19.71
2019-02-27T16:08:57.336Z,19.70
2019-02-27T16:09:53.253Z,19.49
2019-02-27T16:10:55.164Z,19.34
2019-02-27T16:11:52.597Z,19.31
2019-02-27T16:12:52.218Z,19.23
2019-02-27T16:13:52.229Z,19.09
2019-02-27T16:14:52.214Z,18.99
2019-02-27T16:15:52.186Z,18.94
2019-02-27T16:16:54.104Z,18.83
2019-02-27T16:17:53.165Z,18.79
2019-02-27T16:18:52.175Z,18.71
2019-02-27T16:19:54.003Z,18.71
2019-02-27T16:20:52.132Z,18.54
2019-02-27T16:21:56.980Z,18.46
2019-02-27T16:22:53.113Z,18.39
2019-02-27T16:23:52.124Z,18.42
2019-02-27T16:24:52.090Z,18.41
2019-02-27T16:25:53.708Z,18.28
2019-02-27T16:26:52.069Z,18.23
2019-02-27T16:27:52.064Z,18.16
2019-02-27T16:28:52.072Z,18.10
2019-02-27T16:29:54.122Z,18.05
2019-02-27T16:30:52.027Z,18.01
2019-02-27T16:31:52.016Z,17.94
2019-02-27T16:32:52.010Z,17.76
2019-02-27T16:33:52.019Z,17.73
2019-02-27T16:34:51.983Z,17.60
2019-02-27T16:35:51.978Z,17.68
2019-02-27T16:36:51.962Z,17.54
2019-02-27T16:37:56.323Z,17.58
2019-02-27T16:38:52.962Z,17.49
2019-02-27T16:39:51.930Z,17.51
2019-02-27T16:40:52.578Z,17.36
2019-02-27T16:41:51.914Z,17.35
2019-02-27T16:42:51.898Z,17.27
2019-02-27T16:43:51.919Z,17.18
2019-02-27T16:44:54.355Z,17.10
2019-02-27T16:45:52.872Z,17.05
2019-02-27T16:46:51.856Z,16.91
2019-02-27T16:47:53.985Z,16.81
2019-02-27T16:48:52.862Z,16.82
2019-02-27T16:49:51.824Z,16.84
2019-02-27T16:50:51.816Z,16.66
2019-02-27T16:51:51.800Z,16.65
2019-02-27T16:52:51.805Z,16.59
2019-02-27T16:53:52.586Z,16.50
2019-02-27T16:54:51.791Z,16.50
2019-02-27T16:55:51.759Z,16.34
2019-02-27T16:56:51.789Z,16.26
2019-02-27T16:57:56.482Z,16.14
2019-02-27T16:58:52.729Z,16.16
2019-02-27T16:59:51.746Z,16.01
2019-02-27T17:00:54.366Z,15.98
2019-02-27T17:01:51.696Z,15.88
2019-02-27T17:02:51.684Z,15.80
2019-02-27T17:03:59.448Z,15.74
2019-02-27T17:04:52.685Z,15.68
2019-02-27T17:05:51.650Z,15.62
2019-02-27T17:06:52.303Z,15.52
2019-02-27T17:07:51.631Z,15.46
2019-02-27T17:08:51.618Z,15.44
2019-02-27T17:09:51.636Z,15.41
2019-02-27T17:10:52.070Z,15.33
2019-02-27T17:11:51.588Z,15.31
2019-02-27T17:12:51.579Z,15.25
2019-02-27T17:13:51.571Z,15.16
2019-02-27T17:14:51.575Z,15.11
2019-02-27T17:15:51.546Z,15.07
2019-02-27T17:16:51.532Z,15.13
2019-02-27T17:17:53.387Z,15.04
2019-02-27T17:18:51.520Z,15.03
2019-02-27T17:19:53.082Z,14.98
2019-02-27T17:20:51.493Z,14.90
2019-02-27T17:21:51.492Z,14.85
2019-02-27T17:22:51.473Z,14.79
2019-02-27T17:23:51.471Z,14.75
2019-02-27T17:24:52.145Z,14.69
2019-02-27T17:25:51.439Z,14.69
2019-02-27T17:26:51.431Z,14.72
2019-02-27T17:27:53.463Z,14.74
2019-02-27T17:28:51.697Z,14.78
2019-02-27T17:29:51.421Z,14.75
2019-02-27T17:30:51.387Z,14.75
2019-02-27T17:31:55.298Z,14.71
2019-02-27T17:32:51.378Z,14.69
2019-02-27T17:33:51.350Z,14.61
2019-02-27T17:34:51.393Z,14.60
2019-02-27T17:35:53.084Z,14.54
2019-02-27T17:36:51.322Z,14.57
2019-02-27T17:37:51.308Z,14.56
2019-02-27T17:38:51.296Z,14.44
2019-02-27T17:39:51.287Z,14.48
2019-02-27T17:40:52.498Z,14.36
2019-02-27T17:41:52.236Z,14.34
2019-02-27T17:42:53.509Z,14.20
2019-02-27T17:43:51.616Z,14.21
2019-02-27T17:44:51.237Z,14.17
2019-02-27T17:45:51.244Z,14.12
2019-02-27T17:46:51.706Z,14.06
2019-02-27T17:47:51.205Z,14.09
2019-02-27T17:48:51.189Z,13.96
2019-02-27T17:49:51.181Z,13.99
2019-02-27T17:50:51.193Z,13.91
2019-02-27T17:51:51.160Z,13.90
2019-02-27T17:52:51.149Z,13.83
2019-02-27T17:53:51.134Z,13.87
2019-02-27T17:54:51.123Z,13.87
2019-02-27T17:55:51.142Z,13.88
2019-02-27T17:56:51.110Z,13.76
2019-02-27T17:57:51.096Z,13.71
2019-02-27T17:58:51.080Z,13.76
2019-02-27T17:59:51.073Z,13.73
2019-02-27T18:00:51.445Z,13.69
2019-02-27T18:01:51.053Z,13.69
2019-02-27T18:02:51.042Z,13.63
2019-02-27T18:03:51.033Z,13.51
2019-02-27T18:04:53.692Z,13.50
2019-02-27T18:05:51.007Z,13.53
2019-02-27T18:06:51.021Z,13.43
2019-02-27T18:07:50.983Z,13.48
2019-02-27T18:08:52.412Z,13.38
2019-02-27T18:09:50.967Z,13.38
2019-02-27T18:10:50.972Z,13.27
2019-02-27T18:11:52.524Z,13.27
2019-02-27T18:12:51.697Z,13.10
2019-02-27T18:13:50.930Z,13.16
2019-02-27T18:14:50.925Z,13.16
2019-02-27T18:15:53.198Z,13.09
2019-02-27T18:16:50.892Z,13.04
2019-02-27T18:17:50.874Z,13.04
2019-02-27T18:18:50.864Z,13.13
2019-02-27T18:19:50.990Z,13.10
2019-02-27T18:20:50.877Z,13.09
2019-02-27T18:21:50.839Z,13.12
2019-02-27T18:22:50.864Z,13.04
2019-02-27T18:23:50.810Z,12.95
2019-02-27T18:24:50.799Z,12.84
2019-02-27T18:25:50.787Z,12.95
2019-02-27T18:26:51.286Z,12.84
2019-02-27T18:27:50.775Z,12.91
2019-02-27T18:28:50.761Z,12.79
2019-02-27T18:29:50.775Z,12.88
2019-02-27T18:30:53.118Z,12.77
2019-02-27T18:31:50.761Z,12.74
2019-02-27T18:32:50.717Z,12.73
2019-02-27T18:33:50.701Z,12.70
2019-02-27T18:34:54.254Z,12.70
2019-02-27T18:35:50.682Z,12.71
2019-02-27T18:36:51.273Z,12.66
2019-02-27T18:37:54.285Z,12.55
2019-02-27T18:38:50.651Z,12.54
2019-02-27T18:39:50.638Z,12.48
2019-02-27T18:40:50.632Z,12.41
2019-02-27T18:41:50.648Z,12.48
2019-02-27T18:42:55.210Z,12.52
2019-02-27T18:43:52.907Z,12.44
2019-02-27T18:44:50.584Z,12.41
2019-02-27T18:45:50.789Z,12.33
2019-02-27T18:46:50.585Z,12.22
2019-02-27T18:47:50.558Z,12.25
2019-02-27T18:48:50.539Z,12.30
2019-02-27T18:49:52.276Z,12.22
2019-02-27T18:50:50.524Z,12.22
2019-02-27T18:51:50.531Z,12.21
2019-02-27T18:52:50.497Z,12.22
2019-02-27T18:53:50.489Z,12.23
2019-02-27T18:54:50.478Z,12.23
2019-02-27T18:55:50.481Z,12.16
2019-02-27T18:56:50.480Z,12.19
2019-02-27T18:57:50.457Z,12.11
2019-02-27T18:58:51.990Z,12.16
2019-02-27T18:59:51.428Z,12.21
2019-02-27T19:00:50.440Z,12.11
2019-02-27T19:01:50.425Z,12.08
2019-02-27T19:02:51.991Z,12.11
2019-02-27T19:03:50.380Z,12.05
2019-02-27T19:04:50.371Z,12.04
2019-02-27T19:05:50.363Z,11.94
2019-02-27T19:06:50.396Z,11.97
2019-02-27T19:07:53.675Z,11.98
2019-02-27T19:08:50.365Z,11.87
2019-02-27T19:09:50.316Z,11.88
2019-02-27T19:10:50.306Z,11.94
2019-02-27T19:11:50.908Z,11.93
2019-02-27T19:12:50.309Z,11.90
2019-02-27T19:13:50.285Z,11.87
2019-02-27T19:14:50.319Z,11.77
2019-02-27T19:15:50.253Z,11.75
2019-02-27T19:16:52.162Z,11.74
2019-02-27T19:17:50.257Z,11.84
2019-02-27T19:18:50.237Z,11.75
2019-02-27T19:19:50.214Z,11.79
2019-02-27T19:20:50.198Z,11.72
2019-02-27T19:21:50.188Z,11.74
2019-02-27T19:22:50.201Z,11.63
2019-02-27T19:23:52.707Z,11.64
2019-02-27T19:24:50.166Z,11.46
2019-02-27T19:25:50.146Z,11.38
2019-02-27T19:26:50.141Z,11.33
2019-02-27T19:27:50.662Z,11.30
2019-02-27T19:28:50.115Z,11.41
2019-02-27T19:29:50.150Z,11.41
2019-02-27T19:30:50.092Z,11.42
2019-02-27T19:31:51.620Z,11.33
2019-02-27T19:32:50.096Z,11.33
2019-02-27T19:33:50.061Z,11.31
2019-02-27T19:34:50.051Z,11.28
2019-02-27T19:35:50.089Z,11.44
2019-02-27T19:36:50.030Z,11.35
2019-02-27T19:37:50.216Z,11.31
2019-02-27T19:38:50.010Z,11.26
2019-02-27T19:39:50.028Z,11.21
2019-02-27T19:40:49.991Z,11.26
2019-02-27T19:41:50.049Z,11.28
2019-02-27T19:42:49.986Z,11.23
2019-02-27T19:43:54.961Z,11.20
2019-02-27T19:44:50.945Z,11.19
2019-02-27T19:45:49.979Z,11.24
2019-02-27T19:46:49.947Z,11.24
2019-02-27T19:47:54.606Z,11.17
2019-02-27T19:48:50.925Z,11.19
2019-02-27T19:49:49.891Z,11.23
2019-02-27T19:50:49.891Z,11.20
2019-02-27T19:51:54.611Z,11.03
2019-02-27T19:52:50.858Z,11.06
2019-02-27T19:53:49.876Z,11.12
2019-02-27T19:54:52.764Z,11.05
2019-02-27T19:55:49.830Z,11.05
2019-02-27T19:56:49.817Z,11.02
2019-02-27T19:57:49.806Z,11.03
2019-02-27T19:58:51.282Z,10.99
2019-02-27T19:59:49.789Z,11.01
2019-02-27T20:00:49.796Z,10.99
2019-02-27T20:01:49.865Z,11.01
2019-02-27T20:02:55.192Z,11.01
2019-02-27T20:03:50.914Z,10.95
2019-02-27T20:04:49.732Z,10.86
2019-02-27T20:05:50.559Z,10.83
2019-02-27T20:06:51.348Z,10.84
2019-02-27T20:07:50.516Z,10.76
2019-02-27T20:08:49.763Z,10.87